Time,TemperatureF,DewpointF,PressureIn,WindDirection,WindDirectionDegrees,WindSpeedMPH,WindSpeedGustMPH,Humidity,HourlyPrecipIn,Conditions,Clouds,dailyrainin,SoftwareType,DateUTC
2013-02-07 00:02:00,32.6,29.2,29.91,SSE,157,0.0,1.0,87,0.00,,,0.00,Weather View 32 v70,2013-02-07 08:02:00,
2013-02-07 00:09:00,32.9,29.5,29.91,NNW,337,1.0,5.0,87,0.00,,,0.00,Weather View 32 v70,2013-02-07 08:09:00,
2013-02-07 00:14:00,33.8,29.8,29.91,SW,225,2.0,5.0,85,0.00,,,0.00,Weather View 32 v70,2013-02-07 08:14:00,
2013-02-07 00:19:00,34.4,30.1,29.91,North,360,0.0,5.0,84,0.00,,,0.00,Weather View 32 v70,2013-02-07 08:19:00,
2013-02-07 00:24:00,34.7,30.1,29.91,North,360,0.0,5.0,83,0.00,,,0.00,Weather View 32 v70,2013-02-07 08:24:00,
2013-02-07 00:29:00,35.1,30.2,29.91,ENE,67,1.0,5.0,82,0.00,,,0.00,Weather View 32 v70,2013-02-07 08:29:00,
2013-02-07 00:34:00,35.5,30.2,29.91,North,360,0.0,5.0,81,0.00,,,0.00,Weather View 32 v70,2013-02-07 08:34:00,
2013-02-07 00:39:00,35.4,30.1,29.91,North,360,0.0,5.0,81,0.00,,,0.00,Weather View 32 v70,2013-02-07 08:39:00,
2013-02-07 00:44:00,35.4,30.1,29.91,North,360,0.0,5.0,81,0.00,,,0.00,Weather View 32 v70,2013-02-07 08:44:00,
2013-02-07 00:49:00,35.3,30.4,29.91,North,360,0.0,5.0,82,0.00,,,0.00,Weather View 32 v70,2013-02-07 08:49:00,
2013-02-07 00:54:00,35.0,30.1,29.90,North,360,0.0,5.0,82,0.00,,,0.00,Weather View 32 v70,2013-02-07 08:54:00,
2013-02-07 00:59:00,34.9,30.0,29.91,North,360,0.0,5.0,82,0.00,,,0.00,Weather View 32 v70,2013-02-07 08:59:00,
2013-02-07 01:04:00,34.6,30.0,29.91,North,360,1.0,5.0,83,0.00,,,0.00,Weather View 32 v70,2013-02-07 09:04:00,
2013-02-07 01:09:00,34.4,30.1,29.91,North,360,0.0,5.0,84,0.00,,,0.00,Weather View 32 v70,2013-02-07 09:09:00,
2013-02-07 01:14:00,34.2,29.9,29.91,North,360,0.0,4.0,84,0.00,,,0.00,Weather View 32 v70,2013-02-07 09:14:00,
2013-02-07 01:19:00,34.1,30.1,29.90,WSW,247,2.0,4.0,85,0.00,,,0.00,Weather View 32 v70,2013-02-07 09:19:00,
2013-02-07 01:24:00,33.9,29.9,29.90,WSW,247,0.0,4.0,85,0.00,,,0.00,Weather View 32 v70,2013-02-07 09:24:00,
2013-02-07 01:29:00,33.9,29.9,29.90,WSW,247,0.0,4.0,85,0.00,,,0.00,Weather View 32 v70,2013-02-07 09:29:00,
2013-02-07 01:34:00,33.7,29.7,29.90,WSW,247,0.0,2.0,85,0.00,,,0.00,Weather View 32 v70,2013-02-07 09:34:00,
2013-02-07 01:39:00,33.5,29.5,29.90,WSW,247,0.0,2.0,85,0.00,,,0.00,Weather View 32 v70,2013-02-07 09:39:00,
2013-02-07 01:44:00,33.1,29.7,29.90,WSW,247,0.0,2.0,87,0.00,,,0.00,Weather View 32 v70,2013-02-07 09:44:00,
2013-02-07 01:49:00,32.8,29.4,29.90,WSW,247,0.0,2.0,87,0.00,,,0.00,Weather View 32 v70,2013-02-07 09:49:00,
2013-02-07 01:54:00,32.7,29.5,29.90,WSW,247,0.0,2.0,88,0.00,,,0.00,Weather View 32 v70,2013-02-07 09:54:00,
2013-02-07 01:59:00,32.7,29.3,29.90,WSW,247,0.0,2.0,87,0.00,,,0.00,Weather View 32 v70,2013-02-07 09:59:00,
2013-02-07 02:04:00,32.9,29.5,29.90,WSW,247,0.0,2.0,87,0.00,,,0.00,Weather View 32 v70,2013-02-07 10:04:00,
2013-02-07 02:09:00,33.1,29.4,29.90,WSW,247,0.0,2.0,86,0.00,,,0.00,Weather View 32 v70,2013-02-07 10:09:00,
2013-02-07 02:14:00,33.5,29.5,29.91,WSW,247,0.0,2.0,85,0.00,,,0.00,Weather View 32 v70,2013-02-07 10:14:00,
2013-02-07 02:19:00,33.9,29.9,29.91,WSW,247,0.0,2.0,85,0.00,,,0.00,Weather View 32 v70,2013-02-07 10:19:00,
2013-02-07 02:24:00,34.4,29.8,29.91,WNW,292,2.0,2.0,83,0.00,,,0.00,Weather View 32 v70,2013-02-07 10:24:00,
2013-02-07 02:29:00,35.1,30.2,29.92,WNW,292,0.0,2.0,82,0.00,,,0.00,Weather View 32 v70,2013-02-07 10:29:00,
2013-02-07 02:34:00,35.9,29.7,29.92,NW,315,2.0,4.0,78,0.00,,,0.00,Weather View 32 v70,2013-02-07 10:34:00,
2013-02-07 02:39:00,36.6,30.1,29.92,WNW,292,1.0,6.0,77,0.00,,,0.00,Weather View 32 v70,2013-02-07 10:39:00,
2013-02-07 02:44:00,38.3,29.4,29.92,SW,225,6.0,6.0,70,0.00,,,0.00,Weather View 32 v70,2013-02-07 10:44:00,
2013-02-07 02:49:00,39.6,29.2,29.92,West,270,2.0,7.0,66,0.00,,,0.00,Weather View 32 v70,2013-02-07 10:49:00,
2013-02-07 02:54:00,39.9,29.5,29.92,West,270,0.0,7.0,66,0.00,,,0.00,Weather View 32 v70,2013-02-07 10:54:00,
2013-02-07 02:59:00,40.0,29.2,29.92,NW,315,1.0,7.0,65,0.00,,,0.00,Weather View 32 v70,2013-02-07 10:59:00,
2013-02-07 03:04:00,39.6,29.9,29.92,NW,315,2.0,7.0,68,0.00,,,0.00,Weather View 32 v70,2013-02-07 11:04:00,
2013-02-07 03:09:00,38.9,29.9,29.92,NW,315,0.0,7.0,70,0.00,,,0.00,Weather View 32 v70,2013-02-07 11:09:00,
2013-02-07 03:14:00,38.6,29.3,29.92,WSW,247,2.0,7.0,69,0.00,,,0.00,Weather View 32 v70,2013-02-07 11:14:00,
2013-02-07 03:19:00,39.4,28.6,29.93,WSW,247,1.0,7.0,65,0.00,,,0.00,Weather View 32 v70,2013-02-07 11:19:00,
2013-02-07 03:24:00,39.8,29.0,29.93,WSW,247,2.0,9.0,65,0.00,,,0.00,Weather View 32 v70,2013-02-07 11:24:00,
2013-02-07 03:29:00,39.8,29.0,29.93,SW,225,3.0,9.0,65,0.00,,,0.00,Weather View 32 v70,2013-02-07 11:29:00,
2013-02-07 03:34:00,39.9,29.1,29.93,SW,225,1.0,9.0,65,0.00,,,0.00,Weather View 32 v70,2013-02-07 11:34:00,
2013-02-07 03:39:00,39.7,28.9,29.93,SW,225,0.0,9.0,65,0.00,,,0.00,Weather View 32 v70,2013-02-07 11:39:00,
2013-02-07 03:44:00,39.5,29.1,29.93,SW,225,0.0,9.0,66,0.00,,,0.00,Weather View 32 v70,2013-02-07 11:44:00,
2013-02-07 03:49:00,39.2,29.2,29.93,SW,225,0.0,9.0,67,0.00,,,0.00,Weather View 32 v70,2013-02-07 11:49:00,
2013-02-07 03:54:00,38.7,29.8,29.93,NE,45,2.0,9.0,70,0.00,,,0.00,Weather View 32 v70,2013-02-07 11:54:00,
2013-02-07 03:59:00,38.4,30.2,29.93,NE,45,2.0,9.0,72,0.00,,,0.00,Weather View 32 v70,2013-02-07 11:59:00,
2013-02-07 04:04:00,38.1,30.2,29.93,NE,45,0.0,9.0,73,0.00,,,0.00,Weather View 32 v70,2013-02-07 12:04:00,
2013-02-07 04:09:00,37.8,29.6,29.94,NE,45,0.0,9.0,72,0.00,,,0.00,Weather View 32 v70,2013-02-07 12:09:00,
2013-02-07 04:14:00,37.5,29.3,29.94,NE,45,0.0,9.0,72,0.00,,,0.00,Weather View 32 v70,2013-02-07 12:14:00,
2013-02-07 04:19:00,37.2,29.3,29.94,NE,45,0.0,9.0,73,0.00,,,0.00,Weather View 32 v70,2013-02-07 12:19:00,
2013-02-07 04:24:00,36.9,29.7,29.94,NE,45,0.0,4.0,75,0.00,,,0.00,Weather View 32 v70,2013-02-07 12:24:00,
2013-02-07 04:29:00,36.7,29.5,29.94,NE,45,0.0,4.0,75,0.00,,,0.00,Weather View 32 v70,2013-02-07 12:29:00,
2013-02-07 04:34:00,36.5,29.6,29.94,NE,45,0.0,2.0,76,0.00,,,0.00,Weather View 32 v70,2013-02-07 12:34:00,
2013-02-07 04:39:00,36.3,30.1,29.94,SSW,202,2.0,2.0,78,0.00,,,0.00,Weather View 32 v70,2013-02-07 12:39:00,
2013-02-07 04:44:00,36.1,29.9,29.94,SSW,202,0.0,2.0,78,0.00,,,0.00,Weather View 32 v70,2013-02-07 12:44:00,
2013-02-07 04:49:00,36.1,30.2,29.94,SSW,202,0.0,2.0,79,0.00,,,0.00,Weather View 32 v70,2013-02-07 12:49:00,
2013-02-07 04:54:00,36.0,30.1,29.94,SSW,202,0.0,2.0,79,0.00,,,0.00,Weather View 32 v70,2013-02-07 12:54:00,
2013-02-07 04:59:00,35.8,29.9,29.94,SSW,202,0.0,2.0,79,0.00,,,0.00,Weather View 32 v70,2013-02-07 12:59:00,
2013-02-07 05:04:00,35.7,30.1,29.94,SSW,202,0.0,2.0,80,0.00,,,0.00,Weather View 32 v70,2013-02-07 13:04:00,
2013-02-07 05:09:00,35.6,30.0,29.95,SSW,202,0.0,2.0,80,0.00,,,0.00,Weather View 32 v70,2013-02-07 13:09:00,
2013-02-07 05:14:00,35.5,29.6,29.95,SSW,202,1.0,2.0,79,0.00,,,0.00,Weather View 32 v70,2013-02-07 13:14:00,
2013-02-07 05:19:00,35.8,29.6,29.95,SSW,202,0.0,2.0,78,0.00,,,0.00,Weather View 32 v70,2013-02-07 13:19:00,
2013-02-07 05:24:00,36.0,29.5,29.95,SSW,202,0.0,2.0,77,0.00,,,0.00,Weather View 32 v70,2013-02-07 13:24:00,
2013-02-07 05:29:00,36.1,29.9,29.95,SSW,202,0.0,2.0,78,0.00,,,0.00,Weather View 32 v70,2013-02-07 13:29:00,
2013-02-07 05:34:00,35.9,30.0,29.95,SSW,202,0.0,2.0,79,0.00,,,0.00,Weather View 32 v70,2013-02-07 13:34:00,
2013-02-07 05:39:00,35.7,29.8,29.96,SSW,202,0.0,2.0,79,0.00,,,0.00,Weather View 32 v70,2013-02-07 13:39:00,
2013-02-07 05:44:00,35.4,29.8,29.95,SSW,202,0.0,2.0,80,0.00,,,0.00,Weather View 32 v70,2013-02-07 13:44:00,
2013-02-07 05:49:00,35.0,29.8,29.95,SSW,202,0.0,2.0,81,0.00,,,0.00,Weather View 32 v70,2013-02-07 13:49:00,
2013-02-07 05:54:00,34.6,30.0,29.95,SSW,202,0.0,2.0,83,0.00,,,0.00,Weather View 32 v70,2013-02-07 13:54:00,
2013-02-07 05:59:00,34.2,29.9,29.95,SSW,202,0.0,2.0,84,0.00,,,0.00,Weather View 32 v70,2013-02-07 13:59:00,
2013-02-07 06:04:00,33.9,29.6,29.95,SSW,202,1.0,2.0,84,0.00,,,0.00,Weather View 32 v70,2013-02-07 14:04:00,
2013-02-07 06:09:00,33.6,29.6,29.96,SSW,202,0.0,2.0,85,0.00,,,0.00,Weather View 32 v70,2013-02-07 14:09:00,
2013-02-07 06:14:00,33.3,29.0,29.96,SSW,202,0.0,2.0,84,0.00,,,0.00,Weather View 32 v70,2013-02-07 14:14:00,
2013-02-07 06:19:00,32.9,28.9,29.96,SSW,202,1.0,2.0,85,0.00,,,0.00,Weather View 32 v70,2013-02-07 14:19:00,
2013-02-07 06:24:00,32.8,29.1,29.96,SSW,202,0.0,2.0,86,0.00,,,0.00,Weather View 32 v70,2013-02-07 14:24:00,
2013-02-07 06:29:00,32.9,28.9,29.96,SSW,202,0.0,2.0,85,0.00,,,0.00,Weather View 32 v70,2013-02-07 14:29:00,
2013-02-07 06:34:00,32.9,28.9,29.96,SSW,202,0.0,2.0,85,0.00,,,0.00,Weather View 32 v70,2013-02-07 14:34:00,
2013-02-07 06:39:00,32.9,28.9,29.96,SSW,202,0.0,2.0,85,0.00,,,0.00,Weather View 32 v70,2013-02-07 14:39:00,
2013-02-07 06:44:00,32.9,28.9,29.96,SSW,202,0.0,2.0,85,0.00,,,0.00,Weather View 32 v70,2013-02-07 14:44:00,
2013-02-07 06:49:00,32.8,28.8,29.96,SSW,202,0.0,2.0,85,0.00,,,0.00,Weather View 32 v70,2013-02-07 14:49:00,
2013-02-07 06:54:00,32.7,29.0,29.96,SSW,202,0.0,2.0,86,0.00,,,0.00,Weather View 32 v70,2013-02-07 14:54:00,
2013-02-07 06:59:00,32.4,28.7,29.96,SSW,202,0.0,2.0,86,0.00,,,0.00,Weather View 32 v70,2013-02-07 14:59:00,
2013-02-07 07:04:00,32.1,28.4,29.96,SSW,202,0.0,2.0,86,0.00,,,0.00,Weather View 32 v70,2013-02-07 15:04:00,
2013-02-07 07:09:00,31.7,28.6,29.96,SSW,202,0.0,2.0,88,0.00,,,0.00,Weather View 32 v70,2013-02-07 15:09:00,
2013-02-07 07:14:00,31.3,28.4,29.96,SSW,202,0.0,2.0,89,0.00,,,0.00,Weather View 32 v70,2013-02-07 15:14:00,
2013-02-07 07:19:00,31.1,28.5,29.96,SSW,202,0.0,2.0,90,0.00,,,0.00,Weather View 32 v70,2013-02-07 15:19:00,
2013-02-07 07:24:00,30.9,28.3,29.96,SSW,202,0.0,0.0,90,0.00,,,0.00,Weather View 32 v70,2013-02-07 15:24:00,
2013-02-07 07:29:00,30.7,28.1,29.97,SSW,202,0.0,0.0,90,0.00,,,0.00,Weather View 32 v70,2013-02-07 15:29:00,
2013-02-07 07:34:00,30.6,28.0,29.97,SSW,202,0.0,0.0,90,0.00,,,0.00,Weather View 32 v70,2013-02-07 15:34:00,
2013-02-07 07:39:00,30.9,28.3,29.97,SSW,202,0.0,0.0,90,0.00,,,0.00,Weather View 32 v70,2013-02-07 15:39:00,
2013-02-07 07:44:00,31.2,28.9,29.97,SSW,202,0.0,2.0,91,0.00,,,0.00,Weather View 32 v70,2013-02-07 15:44:00,
2013-02-07 07:49:00,31.4,28.8,29.98,SSW,202,0.0,2.0,90,0.00,,,0.00,Weather View 32 v70,2013-02-07 15:49:00,
2013-02-07 07:54:00,31.8,29.2,29.98,SSW,202,1.0,2.0,90,0.00,,,0.00,Weather View 32 v70,2013-02-07 15:54:00,
2013-02-07 07:59:00,31.9,29.0,29.98,SSW,202,0.0,2.0,89,0.00,,,0.00,Weather View 32 v70,2013-02-07 15:59:00,
2013-02-07 08:04:00,32.1,29.2,29.98,SSW,202,0.0,2.0,89,0.00,,,0.00,Weather View 32 v70,2013-02-07 16:04:00,
2013-02-07 08:09:00,32.2,29.3,29.98,SSW,202,0.0,2.0,89,0.00,,,0.00,Weather View 32 v70,2013-02-07 16:09:00,
2013-02-07 08:14:00,32.2,29.3,29.98,SSW,202,0.0,2.0,89,0.00,,,0.00,Weather View 32 v70,2013-02-07 16:14:00,
2013-02-07 08:19:00,32.2,29.3,29.98,SSW,202,0.0,2.0,89,0.00,,,0.00,Weather View 32 v70,2013-02-07 16:19:00,
2013-02-07 08:24:00,32.0,29.1,29.98,SSW,202,0.0,2.0,89,0.00,,,0.00,Weather View 32 v70,2013-02-07 16:24:00,
2013-02-07 08:29:00,31.9,29.0,29.99,SSW,202,0.0,2.0,89,0.00,,,0.00,Weather View 32 v70,2013-02-07 16:29:00,
2013-02-07 08:34:00,31.9,29.3,29.99,SSW,202,0.0,2.0,90,0.00,,,0.00,Weather View 32 v70,2013-02-07 16:34:00,
2013-02-07 08:39:00,31.8,28.9,29.99,SSW,202,0.0,2.0,89,0.00,,,0.00,Weather View 32 v70,2013-02-07 16:39:00,
2013-02-07 08:44:00,31.8,29.2,29.99,SSW,202,0.0,2.0,90,0.00,,,0.00,Weather View 32 v70,2013-02-07 16:44:00,
2013-02-07 08:49:00,31.9,29.0,29.99,SSW,202,0.0,2.0,89,0.00,,,0.00,Weather View 32 v70,2013-02-07 16:49:00,
2013-02-07 08:54:00,32.1,29.5,29.99,SSW,202,0.0,2.0,90,0.00,,,0.00,Weather View 32 v70,2013-02-07 16:54:00,
2013-02-07 08:59:00,32.5,29.9,29.99,SSW,202,0.0,2.0,90,0.00,,,0.00,Weather View 32 v70,2013-02-07 16:59:00,
2013-02-07 09:04:00,33.0,29.8,29.99,SSW,202,0.0,0.0,88,0.00,,,0.00,Weather View 32 v70,2013-02-07 17:04:00,
2013-02-07 09:09:00,33.6,29.9,29.98,SSW,202,0.0,0.0,86,0.00,,,0.00,Weather View 32 v70,2013-02-07 17:09:00,
2013-02-07 09:14:00,34.1,30.1,29.98,SSW,202,0.0,0.0,85,0.00,,,0.00,Weather View 32 v70,2013-02-07 17:14:00,
2013-02-07 09:19:00,34.1,30.1,29.98,SSW,202,0.0,0.0,85,0.00,,,0.00,Weather View 32 v70,2013-02-07 17:19:00,
2013-02-07 09:25:00,33.9,29.9,29.98,SSW,202,0.0,2.0,85,0.00,,,0.00,Weather View 32 v70,2013-02-07 17:25:00,
2013-02-07 09:30:00,33.9,29.9,29.99,SSW,202,0.0,2.0,85,0.00,,,0.00,Weather View 32 v70,2013-02-07 17:30:00,
2013-02-07 09:35:00,34.3,30.0,29.99,SSE,157,0.0,2.0,84,0.00,,,0.00,Weather View 32 v70,2013-02-07 17:35:00,
2013-02-07 09:40:00,35.1,29.9,29.99,SE,135,1.0,2.0,81,0.00,,,0.00,Weather View 32 v70,2013-02-07 17:40:00,
2013-02-07 09:45:00,35.4,30.1,29.99,SE,135,0.0,2.0,81,0.00,,,0.00,Weather View 32 v70,2013-02-07 17:45:00,
2013-02-07 09:50:00,35.7,30.1,29.99,SE,135,0.0,2.0,80,0.00,,,0.00,Weather View 32 v70,2013-02-07 17:50:00,
2013-02-07 09:55:00,36.1,29.6,29.99,SE,135,2.0,2.0,77,0.00,,,0.00,Weather View 32 v70,2013-02-07 17:55:00,
2013-02-07 10:00:00,36.4,29.6,29.99,East,90,2.0,2.0,76,0.00,,,0.00,Weather View 32 v70,2013-02-07 18:00:00,
2013-02-07 10:05:00,36.8,29.6,29.99,East,90,1.0,2.0,75,0.00,,,0.00,Weather View 32 v70,2013-02-07 18:05:00,
2013-02-07 10:10:00,37.5,30.0,29.98,East,90,0.0,2.0,74,0.00,,,0.00,Weather View 32 v70,2013-02-07 18:10:00,
2013-02-07 10:15:00,38.3,30.1,29.98,ENE,67,0.0,2.0,72,0.00,,,0.00,Weather View 32 v70,2013-02-07 18:15:00,
2013-02-07 10:20:00,38.8,28.8,29.99,ENE,67,1.0,2.0,67,0.00,,,0.00,Weather View 32 v70,2013-02-07 18:20:00,
2013-02-07 10:25:00,38.9,28.9,29.99,ENE,67,1.0,2.0,67,0.00,,,0.00,Weather View 32 v70,2013-02-07 18:25:00,
2013-02-07 10:30:00,38.8,29.1,29.99,ENE,67,1.0,2.0,68,0.00,,,0.00,Weather View 32 v70,2013-02-07 18:30:00,
2013-02-07 10:35:00,38.8,28.8,29.99,ENE,67,0.0,2.0,67,0.00,,,0.00,Weather View 32 v70,2013-02-07 18:35:00,
2013-02-07 10:40:00,38.8,28.4,30.00,ENE,67,1.0,2.0,66,0.00,,,0.00,Weather View 32 v70,2013-02-07 18:40:00,
2013-02-07 10:45:00,39.1,28.7,30.00,ENE,67,2.0,2.0,66,0.00,,,0.00,Weather View 32 v70,2013-02-07 18:45:00,
2013-02-07 10:50:00,39.7,28.9,30.00,ENE,67,2.0,2.0,65,0.00,,,0.00,Weather View 32 v70,2013-02-07 18:50:00,
2013-02-07 10:55:00,39.8,28.6,30.00,NE,45,3.0,4.0,64,0.00,,,0.00,Weather View 32 v70,2013-02-07 18:55:00,
2013-02-07 11:00:00,39.9,28.3,29.99,NE,45,0.0,4.0,63,0.00,,,0.00,Weather View 32 v70,2013-02-07 19:00:00,
2013-02-07 11:05:00,40.4,28.4,29.99,ENE,67,2.0,4.0,62,0.00,,,0.00,Weather View 32 v70,2013-02-07 19:05:00,
2013-02-07 11:10:00,40.4,28.4,29.99,ENE,67,0.0,4.0,62,0.00,,,0.00,Weather View 32 v70,2013-02-07 19:10:00,
2013-02-07 11:15:00,41.2,28.8,29.99,North,360,2.0,4.0,61,0.00,,,0.00,Weather View 32 v70,2013-02-07 19:15:00,
2013-02-07 11:20:00,41.3,28.0,29.99,East,90,1.0,4.0,59,0.00,,,0.00,Weather View 32 v70,2013-02-07 19:20:00,
2013-02-07 11:25:00,42.2,28.9,29.99,North,360,2.0,4.0,59,0.00,,,0.00,Weather View 32 v70,2013-02-07 19:25:00,
2013-02-07 11:30:00,42.4,27.8,29.99,ENE,67,1.0,6.0,56,0.00,,,0.00,Weather View 32 v70,2013-02-07 19:30:00,
2013-02-07 11:35:00,43.0,27.9,29.98,NNW,337,1.0,6.0,55,0.00,,,0.00,Weather View 32 v70,2013-02-07 19:35:00,
2013-02-07 11:40:00,42.9,27.4,29.98,ENE,67,1.0,6.0,54,0.00,,,0.00,Weather View 32 v70,2013-02-07 19:40:00,
2013-02-07 11:45:00,43.1,27.6,29.98,NW,315,1.0,6.0,54,0.00,,,0.00,Weather View 32 v70,2013-02-07 19:45:00,
2013-02-07 11:50:00,43.6,28.0,29.98,North,360,0.0,6.0,54,0.00,,,0.00,Weather View 32 v70,2013-02-07 19:50:00,
2013-02-07 11:55:00,43.9,28.3,29.98,WNW,292,2.0,6.0,54,0.00,,,0.00,Weather View 32 v70,2013-02-07 19:55:00,
2013-02-07 12:00:00,43.6,28.0,29.98,WNW,292,1.0,6.0,54,0.00,,,0.00,Weather View 32 v70,2013-02-07 20:00:00,
2013-02-07 12:05:00,43.0,27.5,29.98,SW,225,2.0,6.0,54,0.00,,,0.00,Weather View 32 v70,2013-02-07 20:05:00,
2013-02-07 12:10:00,43.8,28.2,29.98,WSW,247,2.0,6.0,54,0.00,,,0.00,Weather View 32 v70,2013-02-07 20:10:00,
2013-02-07 12:15:00,44.7,27.7,29.98,SE,135,1.0,6.0,51,0.00,,,0.00,Weather View 32 v70,2013-02-07 20:15:00,
2013-02-07 12:20:00,43.9,27.4,29.98,SW,225,2.0,6.0,52,0.00,,,0.00,Weather View 32 v70,2013-02-07 20:20:00,
2013-02-07 12:25:00,44.3,27.3,29.97,WSW,247,0.0,6.0,51,0.00,,,0.00,Weather View 32 v70,2013-02-07 20:25:00,
2013-02-07 12:30:00,44.8,27.7,29.97,South,180,2.0,4.0,51,0.00,,,0.00,Weather View 32 v70,2013-02-07 20:30:00,
2013-02-07 12:35:00,44.3,27.3,29.97,South,180,0.0,4.0,51,0.00,,,0.00,Weather View 32 v70,2013-02-07 20:35:00,
2013-02-07 12:40:00,43.4,26.9,29.97,South,180,1.0,4.0,52,0.00,,,0.00,Weather View 32 v70,2013-02-07 20:40:00,
2013-02-07 12:45:00,43.4,27.8,29.97,SSE,157,2.0,4.0,54,0.00,,,0.00,Weather View 32 v70,2013-02-07 20:45:00,
2013-02-07 12:50:00,42.9,26.5,29.97,ENE,67,4.0,4.0,52,0.00,,,0.00,Weather View 32 v70,2013-02-07 20:50:00,
2013-02-07 12:55:00,42.5,26.5,29.97,ENE,67,0.0,4.0,53,0.00,,,0.00,Weather View 32 v70,2013-02-07 20:55:00,
2013-02-07 13:00:00,42.8,26.8,29.97,ENE,67,0.0,4.0,53,0.00,,,0.00,Weather View 32 v70,2013-02-07 21:00:00,
2013-02-07 13:05:00,43.1,26.6,29.97,ENE,67,0.0,4.0,52,0.00,,,0.00,Weather View 32 v70,2013-02-07 21:05:00,
2013-02-07 13:10:00,43.8,26.8,29.97,South,180,0.0,4.0,51,0.00,,,0.00,Weather View 32 v70,2013-02-07 21:10:00,
2013-02-07 13:15:00,44.4,26.9,29.97,ENE,67,2.0,4.0,50,0.00,,,0.00,Weather View 32 v70,2013-02-07 21:15:00,
2013-02-07 13:20:00,44.1,26.6,29.96,ENE,67,2.0,5.0,50,0.00,,,0.00,Weather View 32 v70,2013-02-07 21:20:00,
2013-02-07 13:25:00,43.8,26.8,29.96,South,180,2.0,5.0,51,0.00,,,0.00,Weather View 32 v70,2013-02-07 21:25:00,
2013-02-07 13:30:00,43.6,26.6,29.96,NW,315,2.0,5.0,51,0.00,,,0.00,Weather View 32 v70,2013-02-07 21:30:00,
2013-02-07 13:35:00,43.5,27.0,29.96,ENE,67,1.0,5.0,52,0.00,,,0.00,Weather View 32 v70,2013-02-07 21:35:00,
2013-02-07 13:40:00,43.1,26.6,29.96,ENE,67,3.0,5.0,52,0.00,,,0.00,Weather View 32 v70,2013-02-07 21:40:00,
2013-02-07 13:45:00,42.9,26.0,29.96,ENE,67,1.0,5.0,51,0.00,,,0.00,Weather View 32 v70,2013-02-07 21:45:00,
2013-02-07 13:50:00,42.9,26.0,29.96,NE,45,2.0,5.0,51,0.00,,,0.00,Weather View 32 v70,2013-02-07 21:50:00,
2013-02-07 13:55:00,43.3,26.8,29.96,NE,45,2.0,5.0,52,0.00,,,0.00,Weather View 32 v70,2013-02-07 21:55:00,
2013-02-07 14:00:00,43.7,25.3,29.96,ENE,67,2.0,6.0,48,0.00,,,0.00,Weather View 32 v70,2013-02-07 22:00:00,
2013-02-07 14:05:00,43.9,24.9,29.96,ENE,67,0.0,6.0,47,0.00,,,0.00,Weather View 32 v70,2013-02-07 22:05:00,
2013-02-07 14:10:00,44.8,25.2,29.96,ENE,67,0.0,6.0,46,0.00,,,0.00,Weather View 32 v70,2013-02-07 22:10:00,
2013-02-07 14:15:00,46.5,26.3,29.96,SW,225,2.0,6.0,45,0.00,,,0.00,Weather View 32 v70,2013-02-07 22:15:00,
2013-02-07 14:20:00,47.2,25.8,29.96,West,270,0.0,6.0,43,0.00,,,0.00,Weather View 32 v70,2013-02-07 22:20:00,
2013-02-07 14:25:00,47.6,25.6,29.96,ESE,112,0.0,6.0,42,0.00,,,0.00,Weather View 32 v70,2013-02-07 22:25:00,
2013-02-07 14:30:00,47.0,25.1,29.96,NW,315,1.0,6.0,42,0.00,,,0.00,Weather View 32 v70,2013-02-07 22:30:00,
2013-02-07 14:35:00,46.0,25.3,29.96,NW,315,0.0,6.0,44,0.00,,,0.00,Weather View 32 v70,2013-02-07 22:35:00,
2013-02-07 14:40:00,45.2,25.1,29.96,NE,45,2.0,6.0,45,0.00,,,0.00,Weather View 32 v70,2013-02-07 22:40:00,
2013-02-07 14:45:00,44.5,25.5,29.96,ENE,67,0.0,6.0,47,0.00,,,0.00,Weather View 32 v70,2013-02-07 22:45:00,
2013-02-07 14:50:00,43.8,24.9,29.96,ENE,67,1.0,6.0,47,0.00,,,0.00,Weather View 32 v70,2013-02-07 22:50:00,
2013-02-07 14:55:00,43.8,25.4,29.97,ENE,67,0.0,6.0,48,0.00,,,0.00,Weather View 32 v70,2013-02-07 22:55:00,
2013-02-07 15:00:00,43.7,25.3,29.97,North,360,1.0,5.0,48,0.00,,,0.00,Weather View 32 v70,2013-02-07 23:00:00,
2013-02-07 15:05:00,43.6,25.7,29.97,NW,315,2.0,4.0,49,0.00,,,0.00,Weather View 32 v70,2013-02-07 23:05:00,
2013-02-07 15:10:00,43.6,25.7,29.97,NW,315,0.0,4.0,49,0.00,,,0.00,Weather View 32 v70,2013-02-07 23:10:00,
2013-02-07 15:15:00,43.6,25.7,29.97,NW,315,2.0,4.0,49,0.00,,,0.00,Weather View 32 v70,2013-02-07 23:15:00,
2013-02-07 15:20:00,43.6,25.2,29.97,NNW,337,1.0,4.0,48,0.00,,,0.00,Weather View 32 v70,2013-02-07 23:20:00,
2013-02-07 15:25:00,43.9,25.5,29.97,ENE,67,2.0,4.0,48,0.00,,,0.00,Weather View 32 v70,2013-02-07 23:25:00,
2013-02-07 15:30:00,44.5,26.0,29.97,ENE,67,0.0,4.0,48,0.00,,,0.00,Weather View 32 v70,2013-02-07 23:30:00,
2013-02-07 15:35:00,45.2,25.1,29.97,NW,315,0.0,4.0,45,0.00,,,0.00,Weather View 32 v70,2013-02-07 23:35:00,
2013-02-07 15:40:00,46.0,24.7,29.97,North,360,1.0,4.0,43,0.00,,,0.00,Weather View 32 v70,2013-02-07 23:40:00,
2013-02-07 15:45:00,46.3,25.0,29.97,NW,315,2.0,4.0,43,0.00,,,0.00,Weather View 32 v70,2013-02-07 23:45:00,
2013-02-07 15:50:00,46.2,25.5,29.97,NW,315,2.0,4.0,44,0.00,,,0.00,Weather View 32 v70,2013-02-07 23:50:00,
2013-02-07 15:55:00,47.2,25.2,29.97,NE,45,2.0,4.0,42,0.00,,,0.00,Weather View 32 v70,2013-02-07 23:55:00,
2013-02-07 16:00:00,47.2,24.7,29.97,North,360,2.0,4.0,41,0.00,,,0.00,Weather View 32 v70,2013-02-08 00:00:00,
2013-02-07 16:05:00,45.9,24.6,29.97,NW,315,2.0,4.0,43,0.00,,,0.00,Weather View 32 v70,2013-02-08 00:05:00,
2013-02-07 16:10:00,45.5,24.8,29.97,NW,315,3.0,4.0,44,0.00,,,0.00,Weather View 32 v70,2013-02-08 00:10:00,
2013-02-07 16:15:00,44.8,24.2,29.97,SW,225,2.0,4.0,44,0.00,,,0.00,Weather View 32 v70,2013-02-08 00:15:00,
2013-02-07 16:20:00,44.7,24.1,29.97,NNW,337,1.0,4.0,44,0.00,,,0.00,Weather View 32 v70,2013-02-08 00:20:00,
2013-02-07 16:25:00,44.4,23.8,29.97,NNW,337,1.0,4.0,44,0.00,,,0.00,Weather View 32 v70,2013-02-08 00:25:00,
2013-02-07 16:30:00,43.9,24.9,29.97,NW,315,3.0,4.0,47,0.00,,,0.00,Weather View 32 v70,2013-02-08 00:30:00,
2013-02-07 16:35:00,43.6,25.2,29.98,NNW,337,2.0,4.0,48,0.00,,,0.00,Weather View 32 v70,2013-02-08 00:35:00,
2013-02-07 16:40:00,43.4,25.5,29.98,NNW,337,0.0,4.0,49,0.00,,,0.00,Weather View 32 v70,2013-02-08 00:40:00,
2013-02-07 16:45:00,43.1,25.7,29.98,NNE,22,0.0,4.0,50,0.00,,,0.00,Weather View 32 v70,2013-02-08 00:45:00,
2013-02-07 16:50:00,42.8,25.4,29.98,North,360,0.0,4.0,50,0.00,,,0.00,Weather View 32 v70,2013-02-08 00:50:00,
2013-02-07 16:55:00,42.1,25.3,29.98,NNW,337,2.0,4.0,51,0.00,,,0.00,Weather View 32 v70,2013-02-08 00:55:00,
2013-02-07 17:00:00,41.5,25.2,29.98,NNW,337,1.0,4.0,52,0.00,,,0.00,Weather View 32 v70,2013-02-08 01:00:00,
2013-02-07 17:05:00,40.9,25.5,29.98,NNW,337,1.0,4.0,54,0.00,,,0.00,Weather View 32 v70,2013-02-08 01:05:00,
2013-02-07 17:10:00,40.3,25.4,29.98,NNW,337,1.0,4.0,55,0.00,,,0.00,Weather View 32 v70,2013-02-08 01:10:00,
2013-02-07 17:15:00,39.6,25.6,29.98,NNW,337,1.0,4.0,57,0.00,,,0.00,Weather View 32 v70,2013-02-08 01:15:00,
2013-02-07 17:20:00,39.0,25.5,29.98,NNW,337,1.0,4.0,58,0.00,,,0.00,Weather View 32 v70,2013-02-08 01:20:00,
2013-02-07 17:25:00,38.5,25.8,29.99,NNW,337,1.0,4.0,60,0.00,,,0.00,Weather View 32 v70,2013-02-08 01:25:00,
2013-02-07 17:30:00,37.9,25.6,29.99,NNW,337,0.0,4.0,61,0.00,,,0.00,Weather View 32 v70,2013-02-08 01:30:00,
2013-02-07 17:35:00,37.3,25.5,29.99,NNW,337,0.0,3.0,62,0.00,,,0.00,Weather View 32 v70,2013-02-08 01:35:00,
2013-02-07 17:40:00,36.9,25.1,29.99,NNW,337,0.0,2.0,62,0.00,,,0.00,Weather View 32 v70,2013-02-08 01:40:00,
2013-02-07 17:46:00,36.5,25.1,29.99,NNW,337,0.0,2.0,63,0.00,,,0.00,Weather View 32 v70,2013-02-08 01:46:00,
2013-02-07 17:51:00,35.8,25.2,29.99,NNW,337,0.0,2.0,65,0.00,,,0.00,Weather View 32 v70,2013-02-08 01:51:00,
2013-02-07 17:56:00,35.2,24.6,29.99,NNW,337,0.0,2.0,65,0.00,,,0.00,Weather View 32 v70,2013-02-08 01:56:00,
2013-02-07 18:01:00,34.8,24.6,29.99,NNW,337,0.0,2.0,66,0.00,,,0.00,Weather View 32 v70,2013-02-08 02:01:00,
2013-02-07 18:06:00,34.5,24.7,29.99,NNW,337,0.0,2.0,67,0.00,,,0.00,Weather View 32 v70,2013-02-08 02:06:00,
2013-02-07 18:11:00,34.1,24.6,29.99,NNW,337,0.0,2.0,68,0.00,,,0.00,Weather View 32 v70,2013-02-08 02:11:00,
2013-02-07 18:16:00,33.6,24.5,29.99,NNW,337,0.0,2.0,69,0.00,,,0.00,Weather View 32 v70,2013-02-08 02:16:00,
2013-02-07 18:21:00,33.2,24.5,29.99,NNW,337,0.0,2.0,70,0.00,,,0.00,Weather View 32 v70,2013-02-08 02:21:00,
2013-02-07 18:26:00,32.9,24.5,30.00,NNW,337,0.0,2.0,71,0.00,,,0.00,Weather View 32 v70,2013-02-08 02:26:00,
2013-02-07 18:31:00,32.6,24.9,30.00,NNW,337,0.0,0.0,73,0.00,,,0.00,Weather View 32 v70,2013-02-08 02:31:00,
2013-02-07 18:36:00,32.3,24.9,30.00,NNW,337,0.0,0.0,74,0.00,,,0.00,Weather View 32 v70,2013-02-08 02:36:00,
2013-02-07 18:41:00,31.9,24.6,30.00,WNW,292,0.0,1.0,74,0.00,,,0.00,Weather View 32 v70,2013-02-08 02:41:00,
2013-02-07 18:46:00,31.7,24.7,30.00,WNW,292,0.0,1.0,75,0.00,,,0.00,Weather View 32 v70,2013-02-08 02:46:00,
2013-02-07 18:51:00,31.5,24.5,30.00,WNW,292,0.0,1.0,75,0.00,,,0.00,Weather View 32 v70,2013-02-08 02:51:00,
2013-02-07 18:56:00,31.2,24.5,30.00,WNW,292,0.0,1.0,76,0.00,,,0.00,Weather View 32 v70,2013-02-08 02:56:00,
2013-02-07 19:01:00,30.9,24.2,30.00,WNW,292,0.0,1.0,76,0.00,,,0.00,Weather View 32 v70,2013-02-08 03:01:00,
2013-02-07 19:06:00,30.5,23.8,30.00,WNW,292,0.0,1.0,76,0.00,,,0.00,Weather View 32 v70,2013-02-08 03:06:00,
2013-02-07 19:11:00,30.3,24.3,30.01,WNW,292,0.0,1.0,78,0.00,,,0.00,Weather View 32 v70,2013-02-08 03:11:00,
2013-02-07 19:16:00,30.0,24.3,30.01,WNW,292,0.0,1.0,79,0.00,,,0.00,Weather View 32 v70,2013-02-08 03:16:00,
2013-02-07 19:21:00,29.8,24.1,30.01,WNW,292,0.0,1.0,79,0.00,,,0.00,Weather View 32 v70,2013-02-08 03:21:00,
2013-02-07 19:26:00,29.6,24.2,30.01,WNW,292,0.0,1.0,80,0.00,,,0.00,Weather View 32 v70,2013-02-08 03:26:00,
2013-02-07 19:31:00,29.3,24.2,30.02,WNW,292,1.0,1.0,81,0.00,,,0.00,Weather View 32 v70,2013-02-08 03:31:00,
2013-02-07 19:36:00,28.9,24.1,30.02,WNW,292,0.0,2.0,82,0.00,,,0.00,Weather View 32 v70,2013-02-08 03:36:00,
2013-02-07 19:41:00,28.8,24.6,30.02,WNW,292,0.0,2.0,84,0.00,,,0.00,Weather View 32 v70,2013-02-08 03:41:00,
2013-02-07 19:46:00,28.9,25.0,30.02,WNW,292,0.0,2.0,85,0.00,,,0.00,Weather View 32 v70,2013-02-08 03:46:00,
2013-02-07 19:51:00,29.0,25.3,30.02,WNW,292,1.0,2.0,86,0.00,,,0.00,Weather View 32 v70,2013-02-08 03:51:00,
2013-02-07 19:56:00,29.1,25.4,30.02,WNW,292,0.0,2.0,86,0.00,,,0.00,Weather View 32 v70,2013-02-08 03:56:00,
2013-02-07 20:01:00,29.0,25.6,30.02,WNW,292,0.0,2.0,87,0.00,,,0.00,Weather View 32 v70,2013-02-08 04:01:00,
2013-02-07 20:06:00,28.9,25.8,30.02,WNW,292,0.0,2.0,88,0.00,,,0.00,Weather View 32 v70,2013-02-08 04:06:00,
2013-02-07 20:11:00,28.9,25.5,30.02,WNW,292,0.0,2.0,87,0.00,,,0.00,Weather View 32 v70,2013-02-08 04:11:00,
2013-02-07 20:16:00,28.7,25.3,30.03,WNW,292,0.0,2.0,87,0.00,,,0.00,Weather View 32 v70,2013-02-08 04:16:00,
2013-02-07 20:21:00,28.4,25.0,30.03,WNW,292,0.0,2.0,87,0.00,,,0.00,Weather View 32 v70,2013-02-08 04:21:00,
2013-02-07 20:26:00,27.9,24.8,30.03,WNW,292,0.0,2.0,88,0.00,,,0.00,Weather View 32 v70,2013-02-08 04:26:00,
2013-02-07 20:31:00,27.6,24.5,30.03,WNW,292,1.0,2.0,88,0.00,,,0.00,Weather View 32 v70,2013-02-08 04:31:00,
2013-02-07 20:36:00,27.3,24.2,30.03,SW,225,2.0,2.0,88,0.00,,,0.00,Weather View 32 v70,2013-02-08 04:36:00,
2013-02-07 20:41:00,27.1,24.3,30.04,SW,225,2.0,2.0,89,0.00,,,0.00,Weather View 32 v70,2013-02-08 04:41:00,
2013-02-07 20:46:00,26.9,24.1,30.04,SW,225,2.0,2.0,89,0.00,,,0.00,Weather View 32 v70,2013-02-08 04:46:00,
2013-02-07 20:51:00,26.8,24.0,30.04,SW,225,0.0,2.0,89,0.00,,,0.00,Weather View 32 v70,2013-02-08 04:51:00,
2013-02-07 20:56:00,26.6,24.1,30.04,SW,225,0.0,2.0,90,0.00,,,0.00,Weather View 32 v70,2013-02-08 04:56:00,
2013-02-07 21:00:00,26.4,23.9,30.04,SW,225,0.0,2.0,90,0.00,,,0.00,Weather View 32 v70,2013-02-08 05:00:00,
2013-02-07 21:05:00,26.4,23.9,30.05,SW,225,0.0,2.0,90,0.00,,,0.00,Weather View 32 v70,2013-02-08 05:05:00,
2013-02-07 21:10:00,26.2,23.9,30.05,SW,225,1.0,2.0,91,0.00,,,0.00,Weather View 32 v70,2013-02-08 05:10:00,
2013-02-07 21:15:00,25.9,23.6,30.05,SW,225,0.0,2.0,91,0.00,,,0.00,Weather View 32 v70,2013-02-08 05:15:00,
2013-02-07 21:20:00,25.8,23.8,30.05,SW,225,2.0,2.0,92,0.00,,,0.00,Weather View 32 v70,2013-02-08 05:20:00,
2013-02-07 21:25:00,25.7,23.7,30.05,SW,225,2.0,2.0,92,0.00,,,0.00,Weather View 32 v70,2013-02-08 05:25:00,
2013-02-07 21:30:00,25.5,23.5,30.05,SW,225,2.0,2.0,92,0.00,,,0.00,Weather View 32 v70,2013-02-08 05:30:00,
2013-02-07 21:35:00,25.3,23.6,30.05,SW,225,0.0,2.0,93,0.00,,,0.00,Weather View 32 v70,2013-02-08 05:35:00,
2013-02-07 21:40:00,24.9,23.2,30.06,SW,225,2.0,2.0,93,0.00,,,0.00,Weather View 32 v70,2013-02-08 05:40:00,
2013-02-07 21:45:00,25.0,23.3,30.06,SW,225,1.0,2.0,93,0.00,,,0.00,Weather View 32 v70,2013-02-08 05:45:00,
2013-02-07 21:50:00,25.1,23.4,30.06,SW,225,0.0,2.0,93,0.00,,,0.00,Weather View 32 v70,2013-02-08 05:50:00,
2013-02-07 21:55:00,25.0,23.3,30.06,SW,225,1.0,2.0,93,0.00,,,0.00,Weather View 32 v70,2013-02-08 05:55:00,
2013-02-07 22:00:00,24.7,23.0,30.06,SW,225,1.0,2.0,93,0.00,,,0.00,Weather View 32 v70,2013-02-08 06:00:00,
2013-02-07 22:05:00,24.5,22.8,30.06,SW,225,1.0,2.0,93,0.00,,,0.00,Weather View 32 v70,2013-02-08 06:05:00,
2013-02-07 22:10:00,24.4,22.7,30.06,SW,225,1.0,2.0,93,0.00,,,0.00,Weather View 32 v70,2013-02-08 06:10:00,
2013-02-07 22:15:00,24.1,22.4,30.06,SW,225,0.0,2.0,93,0.00,,,0.00,Weather View 32 v70,2013-02-08 06:15:00,
2013-02-07 22:20:00,23.9,22.2,30.07,SW,225,0.0,2.0,93,0.00,,,0.00,Weather View 32 v70,2013-02-08 06:20:00,
2013-02-07 22:25:00,23.7,22.0,30.07,SW,225,0.0,2.0,93,0.00,,,0.00,Weather View 32 v70,2013-02-08 06:25:00,
2013-02-07 22:30:00,23.5,21.8,30.07,SW,225,0.0,2.0,93,0.00,,,0.00,Weather View 32 v70,2013-02-08 06:30:00,
2013-02-07 22:35:00,23.5,21.8,30.07,SW,225,1.0,2.0,93,0.00,,,0.00,Weather View 32 v70,2013-02-08 06:35:00,
2013-02-07 22:40:00,23.4,21.7,30.07,SW,225,0.0,2.0,93,0.00,,,0.00,Weather View 32 v70,2013-02-08 06:40:00,
2013-02-07 22:45:00,23.2,21.5,30.07,SW,225,0.0,2.0,93,0.00,,,0.00,Weather View 32 v70,2013-02-08 06:45:00,
2013-02-07 22:50:00,23.0,21.3,30.07,SW,225,0.0,2.0,93,0.00,,,0.00,Weather View 32 v70,2013-02-08 06:50:00,
2013-02-07 22:55:00,22.7,21.0,30.07,SW,225,0.0,2.0,93,0.00,,,0.00,Weather View 32 v70,2013-02-08 06:55:00,
2013-02-07 23:00:00,22.3,20.6,30.07,SW,225,0.0,2.0,93,0.00,,,0.00,Weather View 32 v70,2013-02-08 07:00:00,
2013-02-07 23:05:00,22.0,20.3,30.07,SW,225,0.0,2.0,93,0.00,,,0.00,Weather View 32 v70,2013-02-08 07:05:00,
2013-02-07 23:10:00,22.0,20.3,30.07,SW,225,0.0,2.0,93,0.00,,,0.00,Weather View 32 v70,2013-02-08 07:10:00,
2013-02-07 23:15:00,22.1,20.4,30.07,SW,225,0.0,2.0,93,0.00,,,0.00,Weather View 32 v70,2013-02-08 07:15:00,
2013-02-07 23:20:00,21.9,20.2,30.08,SW,225,0.0,2.0,93,0.00,,,0.00,Weather View 32 v70,2013-02-08 07:20:00,
2013-02-07 23:25:00,21.9,20.2,30.08,SW,225,1.0,2.0,93,0.00,,,0.00,Weather View 32 v70,2013-02-08 07:25:00,
2013-02-07 23:30:00,21.9,20.2,30.08,SW,225,0.0,2.0,93,0.00,,,0.00,Weather View 32 v70,2013-02-08 07:30:00,
2013-02-07 23:35:00,21.7,20.0,30.08,SW,225,0.0,2.0,93,0.00,,,0.00,Weather View 32 v70,2013-02-08 07:35:00,
2013-02-07 23:40:00,21.6,19.9,30.08,SW,225,0.0,2.0,93,0.00,,,0.00,Weather View 32 v70,2013-02-08 07:40:00,
2013-02-07 23:45:00,21.3,19.6,30.09,SW,225,0.0,2.0,93,0.00,,,0.00,Weather View 32 v70,2013-02-08 07:45:00,
2013-02-07 23:50:00,20.9,19.2,30.09,SW,225,0.0,2.0,93,0.00,,,0.00,Weather View 32 v70,2013-02-08 07:50:00,
2013-02-07 23:55:00,21.1,19.4,30.09,SW,225,0.0,2.0,93,0.00,,,0.00,Weather View 32 v70,2013-02-08 07:55:00,